Time;durP1;ratioP1;P1;durP2;ratioP2;P2;SDS_P1;SDS_P2;PMS_P1;PMS_P2;Temp;Humidity;BMP_temperature;BMP_pressure;BME280_temperature;BME280_humidity;BME280_pressure;Samples;Min_cycle;Max_cycle;Signal;HPM_P1;HPM_P2
2022/04/24 00:02:17;;;;;;;3.80;1.27;;;2.00;99.90;;;;;;4995406;28;20026;-77
2022/04/24 00:04:43;;;;;;;4.75;1.40;;;2.00;99.90;;;;;;4995158;28;20053;-77
2022/04/24 00:07:09;;;;;;;2.60;1.13;;;1.90;99.90;;;;;;4995013;28;20513;-77
2022/04/24 00:09:37;;;;;;;4.18;1.13;;;1.90;99.90;;;;;;4977702;28;20080;-77
2022/04/24 00:12:06;;;;;;;6.50;1.20;;;1.90;99.90;;;;;;4994816;28;20565;-77
2022/04/24 00:14:32;;;;;;;2.83;1.20;;;1.80;99.90;;;;;;4994777;28;20030;-77
2022/04/24 00:16:58;;;;;;;4.15;1.30;;;1.80;99.90;;;;;;4994747;28;20084;-77
2022/04/24 00:19:24;;;;;;;2.40;1.17;;;1.70;99.90;;;;;;4995154;28;20030;-80
2022/04/24 00:21:50;;;;;;;2.90;1.08;;;1.70;99.90;;;;;;4994833;28;20061;-73
2022/04/24 00:24:16;;;;;;;2.45;1.30;;;1.70;99.90;;;;;;4977637;28;20041;-72
2022/04/24 00:26:41;;;;;;;4.15;1.20;;;1.70;99.90;;;;;;4994528;28;20432;-72
2022/04/24 00:29:07;;;;;;;2.05;1.23;;;1.80;99.90;;;;;;4994703;28;20081;-72
2022/04/24 00:31:33;;;;;;;2.38;1.23;;;1.80;99.90;;;;;;4994660;28;20041;-72
2022/04/24 00:33:59;;;;;;;3.70;1.77;;;1.70;99.90;;;;;;4994487;28;20027;-72
2022/04/24 00:36:25;;;;;;;1.50;1.10;;;1.70;99.90;;;;;;4994542;28;20469;-72
2022/04/24 00:38:50;;;;;;;1.48;1.00;;;1.70;99.90;;;;;;4977184;28;20061;-72
2022/04/24 00:41:16;;;;;;;1.85;1.25;;;1.70;99.90;;;;;;4994468;28;20069;-72
2022/04/24 00:43:52;;;;;;;3.20;1.20;;;1.70;99.90;;;;;;4994414;28;20022;-72
2022/04/24 00:46:40;;;;;;;3.70;1.00;;;1.70;99.90;;;;;;4994553;28;20069;-72
2022/04/24 00:49:10;;;;;;;3.45;1.40;;;1.60;99.90;;;;;;4994236;28;20073;-71
2022/04/24 00:51:37;;;;;;;2.58;1.27;;;1.60;99.90;;;;;;4993327;28;20026;-72
2022/04/24 00:54:09;;;;;;;2.28;1.38;;;1.60;99.90;;;;;;4994111;28;20110;-72
2022/04/24 00:56:36;;;;;;;5.70;1.17;;;1.50;99.90;;;;;;4994427;28;20052;-71
2022/04/24 00:59:04;;;;;;;3.88;1.38;;;1.50;99.90;;;;;;4993987;28;20041;-71
2022/04/24 01:01:31;;;;;;;3.58;1.10;;;1.50;99.90;;;;;;4994033;28;20147;-71
2022/04/24 01:04:00;;;;;;;1.65;1.10;;;1.50;99.90;;;;;;4994180;28;20026;-71
2022/04/24 01:06:27;;;;;;;2.28;1.40;;;1.50;99.90;;;;;;4994047;28;20060;-71
2022/04/24 01:08:53;;;;;;;4.43;1.40;;;1.50;99.90;;;;;;4993913;28;20646;-71
2022/04/24 01:11:20;;;;;;;9.98;1.27;;;1.40;99.90;;;;;;4993823;28;20030;-71
2022/04/24 01:13:45;;;;;;;1.42;1.10;;;1.40;99.90;;;;;;4993964;28;20027;-71
2022/04/24 01:16:11;;;;;;;1.48;1.25;;;1.40;99.90;;;;;;4993832;28;20037;-71
2022/04/24 01:18:38;;;;;;;4.05;1.20;;;1.30;99.90;;;;;;4993790;28;20486;-71
2022/04/24 01:21:10;;;;;;;1.88;1.33;;;1.30;99.90;;;;;;4993797;28;20161;-71
2022/04/24 01:23:38;;;;;;;1.73;1.10;;;1.30;99.90;;;;;;4976147;28;20474;-71
2022/04/24 01:26:05;;;;;;;2.42;1.30;;;1.30;99.90;;;;;;4976007;28;20342;-73
2022/04/24 01:28:31;;;;;;;1.58;1.00;;;1.30;99.90;;;;;;4993655;28;20120;-73
2022/04/24 01:30:57;;;;;;;2.33;1.20;;;1.30;99.90;;;;;;4993496;28;20389;-73
2022/04/24 01:33:23;;;;;;;2.50;1.15;;;1.20;99.90;;;;;;4993708;28;20022;-73
2022/04/24 01:35:48;;;;;;;1.52;1.23;;;1.20;99.90;;;;;;4993281;28;20025;-73
2022/04/24 01:38:14;;;;;;;3.55;0.95;;;1.30;99.90;;;;;;4993271;28;20058;-73
2022/04/24 01:40:40;;;;;;;3.28;1.20;;;1.30;99.90;;;;;;4993633;28;20044;-73
2022/04/24 01:43:06;;;;;;;3.38;1.45;;;1.20;99.90;;;;;;4993113;28;20444;-73
2022/04/24 01:45:31;;;;;;;1.38;0.93;;;1.20;99.90;;;;;;4993422;28;20104;-73
2022/04/24 01:47:57;;;;;;;1.15;1.02;;;1.20;99.90;;;;;;4993126;28;20478;-73
2022/04/24 01:50:23;;;;;;;1.85;1.42;;;1.20;99.90;;;;;;4993219;28;20097;-73
2022/04/24 01:52:48;;;;;;;5.68;1.40;;;1.20;99.90;;;;;;4975808;28;20022;-72
2022/04/24 01:55:14;;;;;;;2.53;1.00;;;1.10;99.90;;;;;;4993227;28;20537;-72
2022/04/24 01:57:40;;;;;;;2.85;1.15;;;1.20;99.90;;;;;;4973266;28;20023;-72
2022/04/24 02:00:06;;;;;;;1.52;1.20;;;1.20;99.90;;;;;;4954462;29;20023;-72
2022/04/24 02:02:32;;;;;;;2.55;1.33;;;1.10;99.90;;;;;;4954119;28;20062;-72
2022/04/24 02:04:58;;;;;;;1.58;1.20;;;1.10;99.90;;;;;;4954269;29;20054;-73
2022/04/24 02:07:23;;;;;;;3.60;1.33;;;1.10;99.90;;;;;;4954409;29;20043;-72
2022/04/24 02:09:49;;;;;;;3.67;1.20;;;1.10;99.90;;;;;;4954040;29;20027;-73
2022/04/24 02:12:15;;;;;;;2.60;1.02;;;1.10;99.90;;;;;;4954423;29;20122;-73
2022/04/24 02:14:40;;;;;;;3.13;1.30;;;1.10;99.90;;;;;;4954110;29;20020;-72
2022/04/24 02:17:06;;;;;;;2.95;1.15;;;1.00;99.90;;;;;;4953877;29;20031;-72
2022/04/24 02:19:32;;;;;;;1.90;1.10;;;1.00;99.90;;;;;;4954188;29;20024;-72
2022/04/24 02:21:57;;;;;;;4.55;1.30;;;1.00;99.90;;;;;;4953978;29;20027;-72
2022/04/24 02:55:52;;;;;;;3.22;1.20;;;0.80;99.90;;;;;;4963308;28;20044;-74
2022/04/24 02:58:20;;;;;;;1.90;1.38;;;0.80;99.90;;;;;;4954308;29;20031;-74
2022/04/24 03:00:50;;;;;;;1.23;1.05;;;0.80;99.90;;;;;;4953817;29;20143;-73
2022/04/24 03:39:26;;;;;;;1.90;1.40;;;0.80;99.90;;;;;;4976265;28;20055;-76
2022/04/24 03:41:52;;;;;;;7.07;1.73;;;0.80;99.90;;;;;;4976054;28;20030;-76
2022/04/24 03:44:17;;;;;;;1.35;1.10;;;0.80;99.90;;;;;;4976066;28;20442;-76
2022/04/24 03:46:43;;;;;;;2.50;1.38;;;0.80;99.90;;;;;;4975949;28;20031;-76
2022/04/24 03:49:09;;;;;;;2.60;1.50;;;0.80;99.90;;;;;;4976008;28;20474;-75
2022/04/24 03:51:35;;;;;;;1.58;1.25;;;0.80;99.90;;;;;;4975943;28;20027;-77
2022/04/24 03:54:00;;;;;;;1.50;1.30;;;0.90;99.90;;;;;;4976385;28;20054;-77
2022/04/24 03:56:26;;;;;;;2.03;1.35;;;1.00;99.90;;;;;;4975990;28;20042;-75
2022/04/24 03:58:52;;;;;;;2.33;1.10;;;1.30;99.90;;;;;;4975703;28;20454;-77
2022/04/24 04:01:17;;;;;;;1.70;1.27;;;1.60;99.90;;;;;;4974509;28;20122;-76
2022/04/24 04:03:43;;;;;;;2.80;1.50;;;2.00;99.90;;;;;;4975658;28;20029;-77
2022/04/24 04:06:09;;;;;;;4.90;1.45;;;2.40;99.90;;;;;;4976045;28;20039;-77
2022/04/24 04:08:34;;;;;;;3.03;1.08;;;2.80;99.90;;;;;;4975592;28;20562;-77
2022/04/24 04:11:00;;;;;;;2.30;1.48;;;3.20;99.90;;;;;;4975841;28;20042;-74
2022/04/24 04:13:26;;;;;;;3.33;1.25;;;3.50;99.90;;;;;;4975653;28;20027;-77
2022/04/24 04:15:52;;;;;;;4.57;1.10;;;3.80;99.90;;;;;;4975702;28;20058;-78
2022/04/24 04:18:18;;;;;;;1.35;0.95;;;4.10;99.90;;;;;;4975626;28;20042;-77
2022/04/24 04:20:44;;;;;;;1.60;1.10;;;4.50;99.90;;;;;;4975542;28;20023;-77
2022/04/24 04:23:10;;;;;;;2.33;1.13;;;4.70;99.90;;;;;;4975456;28;20037;-75
2022/04/24 04:25:36;;;;;;;3.90;1.10;;;5.10;99.60;;;;;;4975144;28;20114;-76
2022/04/24 04:28:02;;;;;;;1.83;1.10;;;5.40;97.70;;;;;;4975324;28;20117;-79
2022/04/24 04:30:27;;;;;;;2.42;1.08;;;5.80;96.50;;;;;;4975327;28;20023;-76
2022/04/24 04:32:53;;;;;;;2.03;1.10;;;6.00;95.30;;;;;;4975087;28;20034;-68
2022/04/24 04:35:22;;;;;;;1.92;1.20;;;6.20;94.70;;;;;;4975252;28;20030;-67
2022/04/24 04:37:48;;;;;;;1.75;1.05;;;6.50;93.50;;;;;;4968589;28;20062;-72
2022/04/24 04:40:14;;;;;;;1.38;1.00;;;7.90;99.90;;;;;;4955882;29;20019;-73
2022/04/24 04:42:40;;;;;;;3.47;1.20;;;8.20;90.40;;;;;;4955704;29;20391;-76
2022/04/24 04:45:06;;;;;;;1.25;0.95;;;8.30;87.60;;;;;;4955399;29;20035;-76
2022/04/24 04:47:32;;;;;;;1.13;0.88;;;8.30;91.30;;;;;;4972492;28;20128;-74
2022/04/24 04:49:58;;;;;;;2.17;1.00;;;8.40;90.20;;;;;;4973862;28;20026;-74
2022/04/24 04:52:23;;;;;;;2.88;1.02;;;8.50;90.70;;;;;;4973685;28;20039;-74
2022/04/24 04:54:49;;;;;;;2.03;0.80;;;8.60;86.70;;;;;;4973714;28;20094;-78
2022/04/24 04:57:16;;;;;;;4.97;1.15;;;8.80;87.70;;;;;;4973005;28;20029;-72
2022/04/24 04:59:42;;;;;;;2.10;0.98;;;9.20;86.40;;;;;;4972504;28;20107;-72
2022/04/24 05:02:08;;;;;;;2.28;1.00;;;9.50;80.40;;;;;;4971321;28;20105;-72
2022/04/24 05:04:33;;;;;;;1.77;0.93;;;9.60;77.20;;;;;;4969184;28;20085;-72
2022/04/24 05:06:59;;;;;;;1.45;0.80;;;9.70;75.40;;;;;;4970362;28;20049;-72
2022/04/24 05:09:25;;;;;;;1.15;0.80;;;10.00;74.00;;;;;;4971255;28;20478;-72
2022/04/24 05:11:51;;;;;;;2.97;0.88;;;10.20;72.00;;;;;;4970682;28;20026;-72
2022/04/24 05:14:17;;;;;;;1.83;1.00;;;10.50;70.90;;;;;;4967091;28;20020;-72
2022/04/24 05:16:42;;;;;;;1.40;0.90;;;10.70;69.60;;;;;;4955035;29;20023;-75
2022/04/24 05:19:08;;;;;;;2.20;0.75;;;10.80;68.60;;;;;;4955213;29;20107;-73
2022/04/24 05:21:34;;;;;;;9.65;1.30;;;11.00;68.10;;;;;;4955364;29;20390;-76
2022/04/24 05:24:00;;;;;;;1.45;0.88;;;11.10;68.10;;;;;;4954892;29;20027;-74
2022/04/24 05:26:26;;;;;;;1.83;0.90;;;11.20;66.90;;;;;;4937718;29;20050;-78
2022/04/24 05:28:53;;;;;;;1.23;0.80;;;11.50;65.70;;;;;;4954795;29;20027;-76
2022/04/24 05:31:19;;;;;;;5.90;1.20;;;11.70;65.00;;;;;;4955059;29;20065;-77
2022/04/24 05:33:45;;;;;;;3.33;1.10;;;11.70;64.50;;;;;;4954793;29;20035;-71
2022/04/24 05:36:11;;;;;;;5.03;0.95;;;11.80;64.60;;;;;;4953739;29;20031;-68
2022/04/24 05:38:36;;;;;;;2.38;0.82;;;12.00;63.70;;;;;;4963410;28;20074;-68
2022/04/24 05:41:03;;;;;;;3.15;1.27;;;12.20;62.90;;;;;;4970530;28;20030;-68
2022/04/24 05:43:29;;;;;;;1.42;0.88;;;12.50;61.90;;;;;;4971515;28;20371;-68
2022/04/24 05:45:55;;;;;;;1.80;0.90;;;12.80;60.70;;;;;;4972570;28;20502;-68
2022/04/24 05:48:22;;;;;;;5.38;1.02;;;13.00;59.80;;;;;;4973142;28;20114;-68
2022/04/24 05:50:48;;;;;;;1.63;0.88;;;13.20;59.30;;;;;;4973353;28;20509;-68
2022/04/24 05:53:14;;;;;;;4.72;1.17;;;13.40;58.70;;;;;;4973926;28;20121;-68
2022/04/24 05:55:40;;;;;;;4.60;0.82;;;13.50;58.20;;;;;;4973923;28;20523;-68
2022/04/24 05:58:05;;;;;;;4.70;0.85;;;13.40;57.60;;;;;;4957198;28;20039;-75
2022/04/24 06:00:31;;;;;;;3.28;0.70;;;13.40;58.00;;;;;;4954293;29;20394;-72
2022/04/24 06:02:57;;;;;;;2.58;0.80;;;14.30;77.00;;;;;;4960753;28;20037;-69
2022/04/24 06:05:23;;;;;;;1.48;0.80;;;15.00;61.90;;;;;;4990716;28;20026;-72
2022/04/24 06:07:50;;;;;;;2.40;1.00;;;14.60;57.90;;;;;;4983754;28;20370;-74
2022/04/24 06:10:16;;;;;;;8.27;1.80;;;14.30;57.50;;;;;;4973087;28;20386;-73
2022/04/24 06:12:50;;;;;;;4.50;0.75;;;14.00;57.30;;;;;;4973094;28;20435;-73
2022/04/24 06:15:20;;;;;;;2.38;0.75;;;14.00;56.60;;;;;;4958213;28;20031;-74
2022/04/24 06:17:47;;;;;;;2.13;0.80;;;14.00;56.50;;;;;;4961660;28;20018;-74
2022/04/24 06:20:14;;;;;;;1.58;0.80;;;14.00;56.70;;;;;;4969364;28;20345;-74
2022/04/24 06:22:43;;;;;;;2.67;1.13;;;14.00;56.70;;;;;;4967777;28;20054;-74
2022/04/24 06:25:09;;;;;;;2.20;0.75;;;13.90;57.60;;;;;;4973267;28;20438;-73
2022/04/24 06:27:35;;;;;;;4.85;0.77;;;14.00;56.10;;;;;;4973332;28;20077;-69
2022/04/24 06:30:01;;;;;;;23.35;1.35;;;14.10;64.70;;;;;;4973336;28;20057;-69
2022/04/24 06:32:32;;;;;;;7.72;1.05;;;15.20;70.90;;;;;;4973545;28;20476;-69
2022/04/24 06:34:57;;;;;;;;;;;15.90;67.50;;;;;;4973480;28;20029;-68
2022/04/24 06:37:23;;;;;;;7.65;1.23;;;16.50;68.70;;;;;;4955575;28;19910;-68
2022/04/24 06:39:49;;;;;;;13.38;1.63;;;17.00;67.50;;;;;;4979280;28;20041;-73
2022/04/24 06:42:14;;;;;;;3.00;0.85;;;17.50;66.00;;;;;;4974896;28;20042;-73
2022/04/24 06:44:40;;;;;;;6.03;1.15;;;17.00;56.00;;;;;;4991615;28;20030;-71
2022/04/24 06:47:06;;;;;;;6.80;1.00;;;16.10;54.60;;;;;;4991836;28;20038;-75
2022/04/24 06:49:32;;;;;;;2.85;0.80;;;15.60;56.20;;;;;;4964988;28;20057;-72
2022/04/24 06:51:57;;;;;;;3.20;0.95;;;15.30;53.90;;;;;;4976573;28;20090;-71
2022/04/24 06:54:23;;;;;;;8.88;0.95;;;14.90;53.60;;;;;;4981309;28;20441;-70
2022/04/24 06:56:49;;;;;;;6.20;1.35;;;14.60;53.80;;;;;;4995742;28;20267;-71
2022/04/24 06:59:15;;;;;;;5.25;0.90;;;14.30;53.80;;;;;;4995829;28;20033;-71
2022/04/24 07:01:40;;;;;;;5.75;0.80;;;14.20;54.10;;;;;;4995696;28;20415;-72
2022/04/24 07:04:06;;;;;;;2.95;0.70;;;14.00;54.60;;;;;;4973715;28;20033;-71
2022/04/24 07:06:32;;;;;;;8.43;0.88;;;14.10;54.60;;;;;;4980669;28;20046;-70
2022/04/24 07:08:58;;;;;;;2.35;0.80;;;14.10;54.60;;;;;;4995538;28;20466;-70
2022/04/24 07:11:23;;;;;;;8.73;1.10;;;14.00;55.20;;;;;;4994644;28;20094;-70
2022/04/24 07:13:49;;;;;;;18.20;1.42;;;14.80;67.10;;;;;;4981818;28;20035;-69
2022/04/24 07:16:15;;;;;;;11.63;1.02;;;15.40;64.00;;;;;;4995566;28;20053;-69
2022/04/24 07:18:40;;;;;;;3.60;0.70;;;15.90;66.10;;;;;;4995260;28;20018;-69
2022/04/24 07:21:06;;;;;;;2.95;0.60;;;15.70;55.60;;;;;;4988736;28;20022;-69
2022/04/24 07:23:35;;;;;;;1.55;0.55;;;15.00;54.40;;;;;;4959164;28;20454;-69
2022/04/24 07:26:01;;;;;;;4.50;0.57;;;14.50;54.50;;;;;;4976146;28;20026;-69
2022/04/24 07:28:26;;;;;;;1.52;0.60;;;14.10;54.50;;;;;;4976315;28;20085;-69
2022/04/24 07:30:52;;;;;;;0.75;0.40;;;13.80;54.80;;;;;;4975532;28;20037;-69
2022/04/24 07:33:18;;;;;;;0.93;0.50;;;13.60;54.90;;;;;;4958498;28;20121;-69
2022/04/24 07:35:44;;;;;;;6.32;1.50;;;13.40;54.20;;;;;;4976257;28;20045;-69
2022/04/24 07:38:10;;;;;;;3.97;0.90;;;13.50;60.30;;;;;;4975918;28;20050;-69
2022/04/24 07:40:37;;;;;;;2.00;0.70;;;14.00;58.20;;;;;;4976352;28;20027;-69
2022/04/24 07:43:10;;;;;;;1.40;0.75;;;13.80;54.80;;;;;;4976192;28;20027;-69
2022/04/24 07:45:38;;;;;;;1.55;0.40;;;13.50;54.70;;;;;;4976025;28;20113;-69
2022/04/24 07:48:06;;;;;;;2.60;0.60;;;13.10;54.50;;;;;;4975860;28;20038;-69
2022/04/24 07:50:40;;;;;;;10.85;0.82;;;13.00;54.50;;;;;;4976449;28;20038;-69
2022/04/24 07:53:07;;;;;;;2.13;0.70;;;13.00;54.50;;;;;;4976225;28;20386;-69
2022/04/24 07:55:34;;;;;;;3.17;0.50;;;13.00;54.30;;;;;;4975782;28;20386;-69
2022/04/24 07:58:00;;;;;;;2.15;0.50;;;12.90;54.50;;;;;;4975669;28;20248;-69
2022/04/24 08:00:30;;;;;;;2.97;0.52;;;12.80;54.40;;;;;;4975465;28;20380;-69
2022/04/24 08:02:57;;;;;;;1.27;0.70;;;12.80;54.00;;;;;;4975943;28;20161;-69
2022/04/24 08:05:31;;;;;;;2.00;0.50;;;12.70;54.40;;;;;;4975560;28;20023;-69
2022/04/24 08:07:58;;;;;;;0.98;0.45;;;12.50;54.60;;;;;;4975478;28;20022;-69
2022/04/24 08:10:28;;;;;;;3.33;0.50;;;12.30;55.40;;;;;;4975591;28;20387;-69
2022/04/24 08:12:54;;;;;;;2.90;0.53;;;12.20;55.70;;;;;;4975744;28;20521;-69
2022/04/24 08:15:21;;;;;;;1.58;0.63;;;12.20;56.00;;;;;;4975654;28;20278;-69
2022/04/24 08:17:46;;;;;;;4.97;0.70;;;12.20;55.30;;;;;;4975300;28;20054;-69
2022/04/24 08:20:14;;;;;;;3.60;0.70;;;12.30;55.30;;;;;;4975640;28;20055;-69
2022/04/24 08:22:52;;;;;;;49.88;2.63;;;12.30;55.70;;;;;;4975658;28;20033;-69
2022/04/24 08:25:20;;;;;;;4.47;0.70;;;12.40;54.90;;;;;;4975366;28;20019;-69
2022/04/24 08:27:47;;;;;;;2.92;0.80;;;12.40;55.20;;;;;;4975180;28;20049;-69
2022/04/24 08:30:14;;;;;;;3.35;0.82;;;12.30;55.00;;;;;;4975224;28;20014;-69
2022/04/24 08:32:41;;;;;;;13.32;0.98;;;12.40;54.90;;;;;;4975465;28;20117;-69
2022/04/24 08:35:08;;;;;;;1.70;0.80;;;12.60;55.10;;;;;;4974916;28;20113;-69
2022/04/24 08:37:34;;;;;;;5.28;1.05;;;12.60;54.30;;;;;;4975324;28;20134;-69
2022/04/24 08:40:00;;;;;;;2.42;1.00;;;12.40;54.70;;;;;;4974888;28;20093;-69
2022/04/24 08:42:27;;;;;;;3.00;0.80;;;12.40;54.60;;;;;;4975296;28;20023;-69
2022/04/24 08:44:56;;;;;;;4.50;0.88;;;12.30;53.80;;;;;;4974842;28;20049;-69
2022/04/24 08:47:24;;;;;;;3.13;0.93;;;12.20;54.30;;;;;;4974878;28;20497;-69
2022/04/24 08:49:57;;;;;;;2.15;0.68;;;12.10;54.30;;;;;;4957694;28;20117;-69
2022/04/24 08:52:24;;;;;;;10.13;1.48;;;12.20;54.70;;;;;;4974947;28;20022;-69
2022/04/24 08:54:54;;;;;;;8.52;0.90;;;12.20;54.30;;;;;;4974564;28;20070;-69
2022/04/24 08:57:21;;;;;;;4.00;0.95;;;12.30;54.30;;;;;;4957424;28;20031;-69
2022/04/24 08:59:47;;;;;;;3.05;1.00;;;12.40;53.70;;;;;;4974500;28;20035;-69
2022/04/24 09:02:14;;;;;;;3.58;1.20;;;12.40;53.60;;;;;;4974774;28;20542;-69
2022/04/24 09:04:40;;;;;;;2.17;0.80;;;12.30;54.30;;;;;;4974673;28;20058;-69
2022/04/24 09:07:08;;;;;;;3.63;0.98;;;12.30;54.80;;;;;;4974349;28;20035;-69
2022/04/24 09:09:42;;;;;;;4.18;0.90;;;12.20;54.80;;;;;;4957122;28;20502;-70
2022/04/24 09:12:16;;;;;;;4.97;0.90;;;12.10;54.60;;;;;;4973561;28;20031;-69
2022/04/24 09:14:47;;;;;;;0.93;0.63;;;12.00;54.90;;;;;;4956982;28;20019;-69
2022/04/24 09:17:18;;;;;;;7.00;0.95;;;12.00;55.00;;;;;;4974385;28;20019;-69
2022/04/24 09:19:45;;;;;;;2.33;0.85;;;12.00;54.90;;;;;;4974521;28;20242;-69
2022/04/24 09:22:11;;;;;;;5.50;1.17;;;11.90;54.30;;;;;;4974208;28;20038;-69
2022/04/24 09:24:52;;;;;;;2.55;0.95;;;11.90;54.80;;;;;;4974248;28;20026;-69
2022/04/24 09:27:32;;;;;;;6.38;1.05;;;11.90;55.60;;;;;;4974384;28;20043;-69
2022/04/24 09:30:09;;;;;;;2.35;0.85;;;11.90;55.60;;;;;;4974021;28;20019;-68
2022/04/24 09:32:53;;;;;;;6.18;0.77;;;11.90;56.00;;;;;;4974231;28;20042;-69
2022/04/24 09:35:37;;;;;;;5.63;0.85;;;11.90;54.80;;;;;;4973963;28;20073;-69
2022/04/24 09:38:19;;;;;;;7.25;1.08;;;11.90;55.30;;;;;;4973634;28;20228;-69
2022/04/24 09:40:49;;;;;;;4.30;1.00;;;12.10;55.60;;;;;;4973949;28;20062;-69
2022/04/24 09:43:17;;;;;;;3.13;1.10;;;12.20;55.40;;;;;;4974498;28;20430;-69
2022/04/24 09:45:55;;;;;;;4.47;0.80;;;12.30;55.60;;;;;;4973889;28;20026;-69
2022/04/24 09:48:22;;;;;;;2.58;0.70;;;12.30;55.30;;;;;;4973839;28;20026;-69
2022/04/24 09:50:50;;;;;;;1.85;0.70;;;12.20;55.30;;;;;;4974220;28;20019;-69
2022/04/24 09:53:21;;;;;;;4.60;0.73;;;12.20;55.30;;;;;;4973952;28;20110;-69
2022/04/24 09:55:49;;;;;;;4.75;0.88;;;12.10;55.10;;;;;;4973857;28;20042;-69
2022/04/24 09:58:15;;;;;;;6.75;0.90;;;12.10;55.10;;;;;;4973686;28;20098;-69
2022/04/24 10:00:42;;;;;;;2.72;0.95;;;12.30;55.60;;;;;;4973604;28;20038;-69
2022/04/24 10:03:09;;;;;;;4.40;0.80;;;12.40;55.10;;;;;;4973534;28;20077;-69
2022/04/24 10:05:38;;;;;;;10.95;0.85;;;12.50;54.80;;;;;;4973637;28;20055;-69
2022/04/24 10:08:06;;;;;;;1.08;0.70;;;12.50;54.80;;;;;;4973624;28;20532;-69
2022/04/24 10:10:32;;;;;;;7.68;0.90;;;12.60;55.20;;;;;;4973595;28;20055;-69
2022/04/24 10:13:01;;;;;;;2.67;0.70;;;12.60;55.30;;;;;;4973512;28;20065;-69
2022/04/24 10:15:29;;;;;;;3.92;0.60;;;12.70;55.50;;;;;;4973393;28;20301;-69
2022/04/24 10:18:00;;;;;;;12.57;1.77;;;12.70;55.40;;;;;;4973212;28;20058;-69
2022/04/24 10:20:48;;;;;;;1.30;0.57;;;12.70;55.10;;;;;;4972571;28;20027;-68
2022/04/24 10:23:14;;;;;;;3.38;0.70;;;12.60;54.00;;;;;;4972609;28;20074;-66
2022/04/24 10:25:42;;;;;;;3.85;0.63;;;12.60;55.70;;;;;;4955827;28;20038;-66
2022/04/24 10:28:16;;;;;;;6.60;0.77;;;12.60;54.60;;;;;;4974636;28;20031;-68
2022/04/24 10:30:44;;;;;;;6.60;0.57;;;12.60;55.10;;;;;;4973338;28;20037;-66
2022/04/24 10:33:26;;;;;;;7.20;0.80;;;12.70;55.90;;;;;;4973032;28;20027;-66
2022/04/24 10:36:11;;;;;;;2.17;0.60;;;12.80;55.30;;;;;;4973000;28;20390;-66
2022/04/24 10:38:53;;;;;;;14.55;1.33;;;12.70;54.50;;;;;;4972936;28;20046;-66
2022/04/24 10:41:23;;;;;;;1.55;0.50;;;12.70;55.60;;;;;;4972717;28;20030;-66
2022/04/24 10:44:12;;;;;;;1.55;0.70;;;12.80;55.30;;;;;;4955168;28;20568;-66
2022/04/24 10:46:42;;;;;;;16.60;1.10;;;12.80;55.60;;;;;;4972746;28;20121;-66
2022/04/24 10:49:15;;;;;;;41.50;3.17;;;12.80;54.80;;;;;;4972733;28;20019;-66
2022/04/24 10:52:00;;;;;;;6.18;1.02;;;12.90;54.90;;;;;;4973362;28;20110;-66
2022/04/24 10:54:31;;;;;;;3.95;0.85;;;13.00;55.60;;;;;;4972413;28;20022;-66
2022/04/24 10:56:57;;;;;;;6.15;0.90;;;12.90;54.90;;;;;;4972961;28;20030;-66
2022/04/24 10:59:23;;;;;;;29.27;2.20;;;13.00;54.70;;;;;;4972928;28;20027;-66
2022/04/24 11:01:51;;;;;;;9.25;1.50;;;12.90;54.50;;;;;;4972918;28;20027;-66
2022/04/24 11:04:18;;;;;;;5.80;1.40;;;13.00;54.40;;;;;;4972827;28;20054;-66
2022/04/24 11:06:59;;;;;;;3.45;0.65;;;13.00;55.10;;;;;;4972834;28;20043;-66
2022/04/24 11:09:30;;;;;;;3.65;0.70;;;13.10;55.10;;;;;;4972935;28;20386;-67
2022/04/24 11:11:59;;;;;;;4.68;1.25;;;13.10;54.90;;;;;;4973092;28;20058;-66
2022/04/24 11:14:26;;;;;;;2.03;0.68;;;13.10;54.30;;;;;;4972918;28;20479;-66
2022/04/24 11:17:01;;;;;;;3.08;0.60;;;13.00;54.30;;;;;;4972645;28;20035;-66
2022/04/24 11:19:29;;;;;;;1.85;0.70;;;12.90;54.40;;;;;;4972895;28;20066;-66
2022/04/24 11:21:59;;;;;;;11.43;1.23;;;13.00;54.40;;;;;;4972765;28;20031;-66
2022/04/24 11:24:27;;;;;;;1.90;0.90;;;13.00;55.30;;;;;;4972877;28;20055;-67
2022/04/24 11:26:54;;;;;;;2.80;0.80;;;13.10;55.30;;;;;;4972550;28;20081;-66
2022/04/24 11:29:20;;;;;;;2.55;0.80;;;13.20;55.30;;;;;;4972777;28;20089;-66
2022/04/24 11:31:51;;;;;;;4.45;0.70;;;13.30;54.90;;;;;;4972954;28;20031;-67
2022/04/24 11:34:20;;;;;;;12.77;1.83;;;13.40;54.30;;;;;;4972464;28;20455;-68
2022/04/24 11:36:48;;;;;;;9.00;0.95;;;13.50;54.30;;;;;;4975584;28;20034;-68
2022/04/24 11:39:14;;;;;;;1.27;0.50;;;13.90;61.30;;;;;;4975428;28;20518;-67
2022/04/24 11:41:43;;;;;;;5.88;1.23;;;14.10;55.00;;;;;;4976265;28;20605;-67
2022/04/24 11:52:28;;;;;;;4.63;0.75;;;13.80;53.70;;;;;;4976287;28;20065;-67
2022/04/24 11:54:56;;;;;;;2.90;0.77;;;13.80;54.20;;;;;;4975986;28;20054;-67
2022/04/24 11:57:21;;;;;;;8.88;1.33;;;13.70;54.00;;;;;;4975814;28;20510;-67
2022/04/24 11:59:55;;;;;;;5.32;1.15;;;13.70;54.20;;;;;;4958335;28;20118;-67
2022/04/24 12:02:27;;;;;;;10.13;1.00;;;13.60;53.70;;;;;;4975710;28;20041;-67
2022/04/24 12:04:54;;;;;;;9.52;2.55;;;13.30;54.10;;;;;;4975948;28;20081;-67
2022/04/24 12:07:21;;;;;;;4.45;1.10;;;13.10;54.80;;;;;;4975522;28;20398;-67
2022/04/24 12:10:02;;;;;;;4.30;1.33;;;13.20;55.50;;;;;;4975646;28;20041;-68
2022/04/24 12:12:28;;;;;;;5.50;0.70;;;13.30;55.20;;;;;;4975952;28;20430;-72
2022/04/24 12:14:54;;;;;;;3.50;1.00;;;13.30;54.90;;;;;;4975466;28;20031;-70
2022/04/24 12:17:21;;;;;;;7.47;0.98;;;13.30;55.30;;;;;;4975547;28;20035;-73
2022/04/24 12:19:56;;;;;;;3.38;0.82;;;13.20;55.50;;;;;;4975739;28;20026;-72
2022/04/24 12:22:40;;;;;;;4.85;1.00;;;13.20;55.40;;;;;;4975286;28;20018;-68
2022/04/24 12:25:09;;;;;;;12.77;1.25;;;13.00;55.70;;;;;;4968202;28;20031;-71
2022/04/24 12:27:35;;;;;;;9.95;1.58;;;13.00;56.60;;;;;;4938865;29;20035;-71
2022/04/24 12:30:09;;;;;;;6.40;1.15;;;12.80;55.60;;;;;;4956032;29;20027;-67
2022/04/24 12:32:36;;;;;;;5.18;1.17;;;12.60;55.80;;;;;;4956316;29;20114;-67
2022/04/24 12:35:01;;;;;;;4.38;1.23;;;12.40;56.30;;;;;;4956018;29;20053;-67
2022/04/24 12:37:32;;;;;;;8.13;1.10;;;12.30;56.60;;;;;;4955821;28;20522;-67
2022/04/24 12:39:59;;;;;;;8.77;1.17;;;12.30;56.80;;;;;;4955946;29;20396;-68
2022/04/24 12:42:25;;;;;;;3.88;0.80;;;12.30;56.70;;;;;;4956127;29;20030;-68
2022/04/24 12:44:52;;;;;;;17.35;1.48;;;12.20;56.70;;;;;;4955847;29;20031;-67
2022/04/24 12:47:20;;;;;;;5.50;1.17;;;12.10;57.30;;;;;;4955528;28;20046;-67
2022/04/24 12:49:47;;;;;;;8.13;1.25;;;12.20;57.20;;;;;;4955708;29;20031;-67
2022/04/24 12:52:14;;;;;;;2.67;1.45;;;12.20;57.50;;;;;;4955816;29;20031;-67
2022/04/24 12:54:40;;;;;;;3.83;1.60;;;12.20;57.50;;;;;;4964729;28;20042;-67
2022/04/24 12:57:08;;;;;;;9.65;1.85;;;12.30;57.50;;;;;;4974255;28;20027;-66
2022/04/24 12:59:34;;;;;;;5.57;1.88;;;12.30;57.80;;;;;;4974068;28;20019;-67
2022/04/24 13:02:05;;;;;;;5.80;1.38;;;13.20;64.50;;;;;;4957180;28;20117;-67
2022/04/24 13:04:33;;;;;;;10.25;1.52;;;14.30;63.70;;;;;;4957473;28;20091;-67
2022/04/24 13:06:59;;;;;;;5.78;1.33;;;15.10;61.80;;;;;;4974408;28;20092;-66
2022/04/24 13:09:27;;;;;;;8.40;1.42;;;15.60;58.40;;;;;;4974790;28;20034;-66
2022/04/24 13:11:55;;;;;;;7.80;1.42;;;14.90;53.80;;;;;;4957156;28;20414;-66
2022/04/24 13:14:22;;;;;;;6.75;1.40;;;14.30;54.70;;;;;;4974597;28;20031;-66
2022/04/24 13:19:33;;;;;;;8.90;1.38;;;13.50;55.50;;;;;;4974656;28;20074;-66
2022/04/24 13:21:58;;;;;;;9.50;1.13;;;13.30;56.00;;;;;;4956982;28;20463;-66
2022/04/24 13:24:24;;;;;;;5.60;1.30;;;13.10;55.60;;;;;;4974393;28;20019;-66
2022/04/24 13:26:50;;;;;;;9.32;1.55;;;12.90;56.20;;;;;;4974138;28;20153;-66
2022/04/24 13:29:15;;;;;;;9.63;2.08;;;12.80;56.80;;;;;;4974132;28;20030;-66
2022/04/24 13:31:47;;;;;;;18.85;1.70;;;12.80;56.90;;;;;;4974107;28;20029;-66
2022/04/24 13:34:14;;;;;;;4.28;0.82;;;12.90;57.00;;;;;;4974158;28;20390;-66
2022/04/24 13:36:39;;;;;;;5.22;1.17;;;12.90;56.40;;;;;;4973864;28;20106;-66
2022/04/24 13:39:05;;;;;;;9.40;1.20;;;12.80;56.90;;;;;;4973732;28;20135;-66
2022/04/24 13:41:31;;;;;;;47.20;3.25;;;12.80;57.00;;;;;;4973783;28;20027;-66
2022/04/24 13:43:59;;;;;;;22.75;1.38;;;12.80;56.90;;;;;;4973905;28;20050;-66
2022/04/24 13:46:35;;;;;;;5.32;0.77;;;12.70;57.10;;;;;;4973791;28;20030;-66
2022/04/24 13:49:00;;;;;;;14.38;2.08;;;12.60;57.00;;;;;;4973811;28;20031;-66
2022/04/24 13:51:26;;;;;;;7.97;1.58;;;12.50;57.50;;;;;;4974042;28;20387;-68
2022/04/24 13:53:53;;;;;;;4.32;1.10;;;12.50;57.50;;;;;;4973738;28;20106;-66
2022/04/24 13:56:18;;;;;;;11.55;1.20;;;12.40;57.60;;;;;;4973599;28;20534;-67
2022/04/24 13:58:44;;;;;;;9.27;1.10;;;12.30;57.80;;;;;;4973373;28;20034;-67
2022/04/24 14:01:10;;;;;;;7.78;1.35;;;12.20;57.90;;;;;;4973818;28;20041;-66
2022/04/24 14:03:35;;;;;;;4.65;1.10;;;12.20;58.50;;;;;;4973743;28;20057;-66
2022/04/24 14:06:01;;;;;;;7.55;1.23;;;12.20;58.30;;;;;;4973441;28;20219;-66
2022/04/24 14:08:29;;;;;;;9.65;1.98;;;12.20;58.50;;;;;;4973581;28;20042;-66
2022/04/24 14:10:59;;;;;;;6.25;1.40;;;12.20;58.80;;;;;;4973507;28;20114;-67
2022/04/24 14:13:25;;;;;;;6.10;0.95;;;12.20;58.70;;;;;;4973611;28;20034;-66